createdAt,value
2022-11-16T00:00:06.566Z,100.00
2022-11-16T00:03:33.134Z,100.00
2022-11-16T00:06:41.717Z,100.00
2022-11-16T00:09:48.285Z,100.00
2022-11-16T00:12:54.300Z,100.00
2022-11-16T00:16:00.638Z,100.00
2022-11-16T00:19:07.507Z,100.00
2022-11-16T00:22:13.556Z,100.00
2022-11-16T00:25:19.525Z,100.00
2022-11-16T00:28:25.457Z,100.00
2022-11-16T00:31:33.570Z,100.00
2022-11-16T00:34:40.694Z,100.00
2022-11-16T00:37:46.680Z,100.00
2022-11-16T00:40:53.186Z,100.00
2022-11-16T00:43:59.118Z,100.00
2022-11-16T00:47:05.200Z,100.00
2022-11-16T00:50:11.422Z,100.00
2022-11-16T00:53:18.180Z,100.00
2022-11-16T00:56:24.279Z,100.00
2022-11-16T00:59:30.426Z,100.00
2022-11-16T01:02:38.165Z,100.00
2022-11-16T01:05:44.127Z,100.00
2022-11-16T01:08:50.105Z,100.00
2022-11-16T01:12:10.910Z,100.00
2022-11-16T01:15:17.367Z,100.00
2022-11-16T01:18:24.412Z,100.00
2022-11-16T01:21:30.535Z,100.00
2022-11-16T01:24:36.642Z,100.00
2022-11-16T01:27:42.994Z,100.00
2022-11-16T01:30:53.978Z,100.00
2022-11-16T01:34:00.116Z,100.00
2022-11-16T01:37:07.983Z,100.00
2022-11-16T01:40:17.613Z,100.00
2022-11-16T01:43:25.187Z,100.00
2022-11-16T01:46:37.217Z,100.00
2022-11-16T01:49:45.949Z,100.00
2022-11-16T01:52:56.620Z,100.00
2022-11-16T01:56:04.205Z,100.00
2022-11-16T01:59:22.394Z,100.00
2022-11-16T02:02:28.901Z,100.00
2022-11-16T02:05:40.900Z,100.00
2022-11-16T02:09:13.931Z,100.00
2022-11-16T02:12:33.358Z,100.00
2022-11-16T02:15:41.482Z,100.00
2022-11-16T02:19:00.294Z,100.00
2022-11-16T02:22:09.608Z,100.00
2022-11-16T02:25:18.209Z,100.00
2022-11-16T02:28:29.746Z,100.00
2022-11-16T02:31:37.273Z,100.00
2022-11-16T02:34:43.897Z,100.00
2022-11-16T02:37:55.368Z,100.00
2022-11-16T02:41:03.615Z,100.00
2022-11-16T02:44:12.302Z,100.00
2022-11-16T02:47:21.008Z,100.00
2022-11-16T02:50:28.100Z,100.00
2022-11-16T02:53:37.323Z,100.00
2022-11-16T02:56:45.003Z,100.00
2022-11-16T02:59:53.172Z,100.00
2022-11-16T03:03:13.513Z,100.00
2022-11-16T03:06:21.859Z,100.00
2022-11-16T03:09:31.135Z,100.00
2022-11-16T03:12:37.037Z,100.00
2022-11-16T03:15:46.819Z,100.00
2022-11-16T03:18:56.776Z,100.00
2022-11-16T03:22:05.530Z,100.00
2022-11-16T03:25:13.609Z,100.00
2022-11-16T03:28:22.664Z,100.00
2022-11-16T03:31:30.755Z,100.00
2022-11-16T03:34:38.873Z,100.00
2022-11-16T03:37:46.032Z,100.00
2022-11-16T03:40:52.467Z,100.00
2022-11-16T03:43:59.394Z,100.00
2022-11-16T03:47:05.497Z,100.00
2022-11-16T03:50:11.762Z,100.00
2022-11-16T03:53:17.840Z,100.00
2022-11-16T03:56:25.442Z,100.00
2022-11-16T03:59:31.067Z,100.00
2022-11-16T04:02:37.756Z,100.00
2022-11-16T04:06:00.854Z,100.00
2022-11-16T04:09:23.513Z,100.00
2022-11-16T04:12:47.143Z,100.00
2022-11-16T04:16:10.226Z,100.00
2022-11-16T04:19:32.957Z,100.00
2022-11-16T04:22:59.693Z,100.00
2022-11-16T04:26:07.397Z,100.00
2022-11-16T04:29:14.464Z,100.00
2022-11-16T04:32:37.537Z,100.00
2022-11-16T04:36:10.807Z,100.00
2022-11-16T04:39:16.264Z,100.00
2022-11-16T04:42:22.808Z,100.00
2022-11-16T04:45:47.489Z,100.00
2022-11-16T04:48:54.005Z,100.00
2022-11-16T04:51:59.612Z,100.00
2022-11-16T04:55:06.980Z,100.00
2022-11-16T04:58:12.551Z,100.00
2022-11-16T05:01:18.103Z,100.00
2022-11-16T05:04:23.476Z,100.00
2022-11-16T05:07:29.333Z,100.00
2022-11-16T05:10:40.991Z,100.00
2022-11-16T05:13:47.680Z,100.00
2022-11-16T05:16:52.921Z,100.00
2022-11-16T05:20:16.322Z,100.00
2022-11-16T05:23:45.191Z,100.00
2022-11-16T05:26:52.096Z,100.00
2022-11-16T05:29:57.957Z,100.00
2022-11-16T05:33:03.471Z,100.00
2022-11-16T05:36:11.212Z,100.00
2022-11-16T05:39:17.478Z,100.00
2022-11-16T05:42:22.983Z,100.00
2022-11-16T05:45:28.602Z,100.00
2022-11-16T05:48:34.852Z,100.00
2022-11-16T05:51:41.975Z,100.00
2022-11-16T05:54:47.544Z,100.00
2022-11-16T05:57:52.863Z,100.00
2022-11-16T06:00:58.535Z,100.00
2022-11-16T06:04:04.360Z,100.00
2022-11-16T06:07:10.346Z,100.00
2022-11-16T06:10:16.082Z,100.00
2022-11-16T06:13:22.774Z,100.00
2022-11-16T06:16:29.485Z,100.00
2022-11-16T06:19:35.571Z,100.00
2022-11-16T06:22:41.214Z,100.00
2022-11-16T06:25:46.824Z,100.00
2022-11-16T06:28:54.944Z,100.00
2022-11-16T06:32:00.797Z,100.00
2022-11-16T06:35:07.072Z,100.00
2022-11-16T06:38:18.459Z,100.00
2022-11-16T06:41:26.110Z,100.00
2022-11-16T06:44:31.637Z,100.00
2022-11-16T06:47:39.703Z,100.00
2022-11-16T06:50:45.705Z,100.00
2022-11-16T06:53:51.696Z,100.00
2022-11-16T06:56:57.681Z,100.00
2022-11-16T07:00:03.260Z,100.00
2022-11-16T07:03:09.260Z,100.00
2022-11-16T07:06:15.668Z,100.00
2022-11-16T07:09:23.240Z,100.00
2022-11-16T07:12:29.198Z,100.00
2022-11-16T07:15:35.654Z,100.00
2022-11-16T07:18:42.121Z,100.00
2022-11-16T07:21:47.712Z,100.00
2022-11-16T07:24:55.529Z,100.00
2022-11-16T07:28:01.619Z,100.00
2022-11-16T07:31:09.204Z,100.00
2022-11-16T07:34:15.076Z,100.00
2022-11-16T07:37:27.420Z,100.00
2022-11-16T07:40:33.066Z,100.00
2022-11-16T07:43:40.006Z,100.00
2022-11-16T07:46:54.341Z,100.00
2022-11-16T07:49:59.633Z,100.00
2022-11-16T07:53:06.688Z,100.00
2022-11-16T07:56:12.717Z,100.00
2022-11-16T07:59:18.590Z,100.00
2022-11-16T08:02:24.594Z,100.00
2022-11-16T08:05:31.008Z,100.00
2022-11-16T08:08:36.763Z,100.00
2022-11-16T08:11:42.708Z,100.00
2022-11-16T08:14:48.343Z,100.00
2022-11-16T08:17:53.885Z,100.00
2022-11-16T08:21:01.849Z,100.00
2022-11-16T08:24:08.899Z,100.00
2022-11-16T08:27:17.605Z,100.00
2022-11-16T08:30:28.281Z,100.00
2022-11-16T08:33:33.782Z,100.00
2022-11-16T08:36:41.410Z,100.00
2022-11-16T08:39:47.076Z,100.00
2022-11-16T08:42:57.128Z,100.00
2022-11-16T08:46:05.363Z,100.00
2022-11-16T08:49:11.508Z,100.00
2022-11-16T08:52:16.995Z,100.00
2022-11-16T08:55:22.559Z,100.00
2022-11-16T08:58:27.893Z,100.00
2022-11-16T09:01:33.681Z,100.00
2022-11-16T09:04:39.205Z,100.00
2022-11-16T09:07:45.830Z,100.00
2022-11-16T09:10:51.200Z,100.00
2022-11-16T09:13:57.522Z,100.00
2022-11-16T09:17:02.916Z,100.00
2022-11-16T09:20:09.732Z,100.00
2022-11-16T09:23:15.057Z,100.00
2022-11-16T09:26:23.308Z,100.00
2022-11-16T09:29:28.947Z,100.00
2022-11-16T09:32:34.388Z,100.00
2022-11-16T09:35:43.560Z,100.00
2022-11-16T09:42:29.888Z,100.00
2022-11-16T09:45:40.322Z,99.92
2022-11-16T09:48:45.859Z,100.00
2022-11-16T09:51:52.556Z,99.54
2022-11-16T09:55:00.539Z,99.46
2022-11-16T09:58:09.921Z,98.80
2022-11-16T10:01:22.513Z,99.39
2022-11-16T10:04:37.206Z,99.11
2022-11-16T10:07:44.382Z,98.38
2022-11-16T10:10:55.969Z,97.80
2022-11-16T10:14:07.238Z,97.35
2022-11-16T10:17:18.848Z,97.32
2022-11-16T10:20:43.780Z,96.61
2022-11-16T10:23:56.722Z,95.90
2022-11-16T10:27:09.298Z,95.67
2022-11-16T10:30:17.146Z,95.89
2022-11-16T10:33:24.028Z,96.29
2022-11-16T10:36:31.521Z,96.34
2022-11-16T10:39:41.085Z,96.36
2022-11-16T10:42:48.159Z,96.52
2022-11-16T10:45:58.294Z,96.28
2022-11-16T10:49:09.567Z,95.73
2022-11-16T10:52:15.046Z,95.72
2022-11-16T10:55:21.938Z,95.26
2022-11-16T10:58:27.270Z,95.64
2022-11-16T11:01:37.384Z,93.72
2022-11-16T11:05:01.351Z,93.88
2022-11-16T11:08:08.600Z,93.58
2022-11-16T11:11:38.499Z,93.16
2022-11-16T11:15:01.033Z,92.53
2022-11-16T11:18:13.283Z,92.94
2022-11-16T11:21:21.007Z,93.21
2022-11-16T11:27:53.775Z,93.09
2022-11-16T11:31:01.614Z,92.95
2022-11-16T11:34:14.969Z,92.86
2022-11-16T11:37:22.620Z,92.93
2022-11-16T11:40:28.756Z,93.25
2022-11-16T11:43:35.522Z,93.11
2022-11-16T11:47:18.610Z,93.06
2022-11-16T11:50:12.358Z,93.21
2022-11-16T11:53:23.381Z,92.58
2022-11-16T11:56:30.715Z,91.48
2022-11-16T11:59:36.226Z,92.03
2022-11-16T12:02:49.636Z,91.32
2022-11-16T12:06:06.069Z,91.46
2022-11-16T12:09:22.402Z,91.43
2022-11-16T12:12:38.339Z,90.40
2022-11-16T12:15:52.860Z,89.46
2022-11-16T12:19:17.999Z,89.42
2022-11-16T12:22:33.919Z,89.18
2022-11-16T12:25:43.963Z,88.33
2022-11-16T12:28:56.934Z,88.80
2022-11-16T12:32:19.154Z,88.43
2022-11-16T12:35:31.687Z,87.87
2022-11-16T12:38:48.615Z,87.96
2022-11-16T12:42:13.892Z,87.63
2022-11-16T12:45:33.676Z,87.30
2022-11-16T12:48:45.819Z,87.60
2022-11-16T12:51:57.150Z,87.41
2022-11-16T12:55:25.862Z,87.16
2022-11-16T12:58:39.493Z,86.74
2022-11-16T13:01:49.115Z,86.74
2022-11-16T13:04:58.529Z,86.66
2022-11-16T13:08:05.995Z,85.78
2022-11-16T13:11:15.744Z,85.37
2022-11-16T13:14:25.508Z,85.04
2022-11-16T13:17:33.450Z,84.77
2022-11-16T13:20:45.051Z,84.96
2022-11-16T13:23:54.783Z,85.35
2022-11-16T13:27:07.714Z,85.24
2022-11-16T13:30:19.282Z,85.75
2022-11-16T13:33:29.245Z,85.28
2022-11-16T13:36:45.083Z,85.74
2022-11-16T13:40:08.692Z,86.72
2022-11-16T13:43:18.409Z,86.99
2022-11-16T13:46:54.081Z,87.50
2022-11-16T13:49:53.250Z,88.29
2022-11-16T13:56:29.510Z,89.47
2022-11-16T13:59:37.235Z,89.34
2022-11-16T14:02:43.169Z,88.96
2022-11-16T14:05:49.520Z,89.22
2022-11-16T14:08:55.647Z,89.29
2022-11-16T14:12:20.981Z,89.74
2022-11-16T14:15:28.593Z,89.62
2022-11-16T14:18:37.297Z,89.90
2022-11-16T14:21:48.903Z,90.15
2022-11-16T14:24:58.677Z,90.10
2022-11-16T14:28:14.567Z,90.39
2022-11-16T14:31:23.025Z,90.67
2022-11-16T14:34:31.655Z,90.56
2022-11-16T14:37:39.911Z,90.67
2022-11-16T14:40:47.257Z,91.00
2022-11-16T14:43:55.132Z,91.28
2022-11-16T14:47:00.701Z,91.43
2022-11-16T14:50:18.315Z,90.95
2022-11-16T14:53:27.256Z,91.02
2022-11-16T14:56:32.872Z,91.21
2022-11-16T14:59:38.446Z,91.67
2022-11-16T15:02:51.040Z,91.90
2022-11-16T15:05:59.836Z,91.84
2022-11-16T15:09:05.915Z,91.83
2022-11-16T15:12:32.976Z,91.96
2022-11-16T15:15:38.761Z,92.35
2022-11-16T15:18:56.303Z,92.49
2022-11-16T15:22:02.737Z,92.90
2022-11-16T15:25:24.899Z,92.68
2022-11-16T15:28:31.793Z,92.88
2022-11-16T15:31:38.485Z,93.16
2022-11-16T15:34:44.336Z,93.07
2022-11-16T15:37:52.218Z,93.41
2022-11-16T15:40:58.798Z,93.44
2022-11-16T15:44:14.655Z,93.68
2022-11-16T15:47:22.807Z,93.88
2022-11-16T15:50:29.153Z,94.06
2022-11-16T15:53:36.875Z,94.28
2022-11-16T15:56:43.646Z,94.58
2022-11-16T15:59:50.642Z,94.71
2022-11-16T16:02:56.620Z,94.99
2022-11-16T16:06:02.542Z,95.37
2022-11-16T16:09:08.011Z,95.92
2022-11-16T16:12:20.175Z,96.16
2022-11-16T16:15:27.009Z,96.00
2022-11-16T16:18:41.627Z,96.04
2022-11-16T16:21:52.464Z,95.50
2022-11-16T16:24:58.414Z,95.48
2022-11-16T16:28:04.055Z,94.76
2022-11-16T16:31:10.099Z,94.74
2022-11-16T16:34:17.974Z,94.79
2022-11-16T16:37:23.782Z,95.05
2022-11-16T16:40:29.436Z,95.21
2022-11-16T16:43:35.799Z,95.32
2022-11-16T16:46:41.325Z,95.61
2022-11-16T16:49:46.873Z,95.57
2022-11-16T16:52:52.209Z,95.50
2022-11-16T16:56:00.359Z,95.54
2022-11-16T16:59:06.026Z,95.40
2022-11-16T17:02:12.585Z,95.51
2022-11-16T17:05:18.283Z,95.38
2022-11-16T17:08:23.797Z,95.81
2022-11-16T17:11:29.938Z,95.86
2022-11-16T17:14:35.610Z,95.94
2022-11-16T17:17:42.949Z,96.15
2022-11-16T17:20:48.326Z,96.01
2022-11-16T17:23:53.709Z,96.15
2022-11-16T17:26:59.181Z,96.21
2022-11-16T17:30:05.200Z,96.33
2022-11-16T17:33:10.473Z,96.46
2022-11-16T17:36:16.376Z,96.62
2022-11-16T17:39:22.585Z,96.46
2022-11-16T17:42:28.661Z,96.50
2022-11-16T17:45:34.084Z,96.46
2022-11-16T17:48:40.478Z,96.67
2022-11-16T17:51:46.056Z,96.88
2022-11-16T17:54:51.377Z,97.14
2022-11-16T17:57:58.591Z,97.29
2022-11-16T18:01:04.036Z,97.72
2022-11-16T18:04:09.436Z,98.07
2022-11-16T18:07:14.829Z,98.21
2022-11-16T18:10:20.343Z,98.31
2022-11-16T18:13:25.882Z,98.32
2022-11-16T18:16:32.251Z,98.40
2022-11-16T18:19:37.828Z,98.26
2022-11-16T18:22:43.345Z,98.08
2022-11-16T18:25:48.982Z,97.80
2022-11-16T18:28:54.385Z,97.78
2022-11-16T18:31:59.803Z,97.95
2022-11-16T18:35:10.029Z,97.03
2022-11-16T18:38:15.412Z,96.79
2022-11-16T18:41:21.895Z,96.81
2022-11-16T18:44:27.305Z,96.50
2022-11-16T18:47:32.717Z,95.74
2022-11-16T18:50:38.272Z,96.07
2022-11-16T18:53:46.439Z,96.39
2022-11-16T18:56:51.877Z,97.00
2022-11-16T18:59:57.321Z,97.29
2022-11-16T19:03:05.761Z,97.33
2022-11-16T19:06:15.034Z,97.20
2022-11-16T19:09:20.645Z,96.91
2022-11-16T19:12:26.169Z,97.07
2022-11-16T19:15:31.747Z,97.42
2022-11-16T19:18:37.885Z,96.76
2022-11-16T19:21:43.428Z,96.78
2022-11-16T19:24:48.830Z,96.63
2022-11-16T19:27:54.119Z,96.12
2022-11-16T19:30:59.831Z,96.17
2022-11-16T19:34:06.223Z,96.32
2022-11-16T19:37:11.840Z,96.31
2022-11-16T19:40:22.197Z,95.26
2022-11-16T19:43:30.163Z,94.64
2022-11-16T19:46:38.194Z,94.02
2022-11-16T19:49:43.636Z,93.49
2022-11-16T19:52:49.005Z,93.36
2022-11-16T19:55:57.426Z,92.82
2022-11-16T19:59:02.709Z,92.51
2022-11-16T20:02:10.360Z,92.30
2022-11-16T20:05:16.381Z,92.51
2022-11-16T20:08:21.793Z,92.23
2022-11-16T20:11:27.911Z,92.22
2022-11-16T20:14:33.389Z,92.01
2022-11-16T20:17:39.025Z,91.45
2022-11-16T20:20:44.786Z,91.40
2022-11-16T20:23:51.743Z,90.98
2022-11-16T20:26:57.090Z,90.82
2022-11-16T20:30:08.009Z,90.74
2022-11-16T20:33:15.540Z,90.58
2022-11-16T20:36:22.884Z,90.56
2022-11-16T20:39:28.403Z,90.62
2022-11-16T20:42:34.068Z,90.64
2022-11-16T20:45:39.747Z,90.64
2022-11-16T20:48:45.641Z,90.60
2022-11-16T20:51:51.761Z,90.71
2022-11-16T20:55:00.148Z,90.88
2022-11-16T20:58:05.626Z,90.35
2022-11-16T21:01:13.243Z,90.26
2022-11-16T21:04:21.627Z,90.56
2022-11-16T21:07:27.063Z,90.31
2022-11-16T21:10:35.417Z,90.30
2022-11-16T21:13:58.676Z,90.44
2022-11-16T21:17:04.555Z,90.46
2022-11-16T21:20:28.363Z,90.55
2022-11-16T21:23:39.105Z,90.73
2022-11-16T21:26:44.490Z,91.03
2022-11-16T21:29:49.652Z,90.98
2022-11-16T21:32:54.899Z,91.16
2022-11-16T21:36:03.522Z,90.92
2022-11-16T21:39:09.088Z,91.21
2022-11-16T21:42:14.443Z,91.31
2022-11-16T21:45:19.768Z,91.46
2022-11-16T21:48:25.174Z,91.75
2022-11-16T21:51:30.816Z,91.69
2022-11-16T21:54:48.565Z,91.55
2022-11-16T21:57:53.850Z,91.64
2022-11-16T22:00:59.933Z,91.81
2022-11-16T22:04:22.995Z,91.84
2022-11-16T22:07:34.492Z,91.82
2022-11-16T22:10:39.827Z,92.01
2022-11-16T22:13:45.652Z,92.18
2022-11-16T22:16:51.686Z,92.18
2022-11-16T22:19:57.764Z,92.10
2022-11-16T22:23:03.609Z,92.06
2022-11-16T22:26:10.640Z,91.98
2022-11-16T22:29:16.507Z,92.15
2022-11-16T22:32:22.279Z,92.13
2022-11-16T22:35:31.036Z,92.14
2022-11-16T22:38:39.296Z,92.35
2022-11-16T22:41:45.216Z,92.44
2022-11-16T22:44:51.187Z,92.35
2022-11-16T22:47:57.200Z,92.33
2022-11-16T22:51:13.577Z,92.40
2022-11-16T22:54:22.199Z,92.32
2022-11-16T22:57:30.543Z,92.46
2022-11-16T23:00:41.780Z,92.72
2022-11-16T23:03:48.718Z,92.60
2022-11-16T23:06:54.868Z,92.65
2022-11-16T23:10:00.940Z,92.80
2022-11-16T23:13:24.383Z,92.86
2022-11-16T23:16:30.401Z,92.84
2022-11-16T23:19:53.905Z,92.74
2022-11-16T23:23:17.482Z,92.63
2022-11-16T23:26:42.284Z,92.54
2022-11-16T23:29:48.548Z,92.71
2022-11-16T23:32:54.473Z,92.77
2022-11-16T23:36:00.313Z,92.84
2022-11-16T23:39:06.862Z,92.85
2022-11-16T23:42:30.266Z,92.71
2022-11-16T23:45:36.235Z,92.68
2022-11-16T23:48:42.213Z,92.59
2022-11-16T23:51:47.986Z,92.74
2022-11-16T23:54:53.883Z,92.61
2022-11-16T23:57:59.718Z,92.69
